Flight Track Log - Related Links

Times and Time Zones

All times are in EDT time to prevent confusion due to time zone crossing. See the EJA922 flight status page for this flight to view local times or setup timezone preferences in your user account.


Time Position Orientation Groundspeed Altitude Reporting Facility
EDT Latitude Longitude Course Direction KTS MPH feet Rate Location/Type
Mon 09:59:38 AM 43.2147 -75.3831 157° South 191 220 1,500  Level Boston Center
Mon 10:00:24 AM 43.1778 -75.3614 157° South 207 238 4,200 3,115 Climbing Boston Center
Mon 10:01:22 AM 43.1631 -75.4489 257° West 244 281 6,900 2,319 Climbing Boston Center
Mon 10:02:23 AM 43.1603 -75.5514 268° West 249 287 8,800 1,488 Climbing Boston Center
Mon 10:03:23 AM 43.1578 -75.6453 268° West 266 306 9,900 1,537 Climbing Boston Center
Mon 10:04:24 AM 43.1589 -75.7478 271° West 271 312 11,900 1,918 Climbing Boston Center
Mon 10:05:25 AM 43.1597 -75.8644 271° West 290 334 13,800 1,729 Climbing Boston Center
Mon 10:06:22 AM 43.1600 -75.9956 270° West 324 373 15,300 1,714 Climbing Boston Center
Mon 10:07:24 AM 43.1597 -76.1322 270° West 347 399 17,200 1,900 Climbing Boston Center
Mon 10:08:22 AM 43.1572 -76.2744 269° West 368 423 19,100 2,000 Climbing Boston Center
Mon 10:09:21 AM 43.1436 -76.4086 262° West 372 428 21,100 2,017 Climbing Cleveland Center
Mon 10:10:21 AM 43.1317 -76.5461 263° West 358 412 23,100 2,000 Climbing Cleveland Center
Mon 10:11:21 AM 43.1197 -76.6806 263° West 358 412 25,100 2,050 Climbing Cleveland Center
Mon 10:12:21 AM 43.1075 -76.8150 263° West 358 412 27,200 1,450 Climbing Cleveland Center
Mon 10:13:21 AM 43.0933 -76.9608 262° West 364 419 28,000 800 Climbing Cleveland Center
Mon 10:14:21 AM 43.0792 -77.1125 263° West 390 449 28,800 1,000 Climbing Cleveland Center
Mon 10:15:21 AM 43.0797 -77.2717 270° West 409 471 30,000 800 Climbing Cleveland Center
Mon 10:16:21 AM 43.0803 -77.4422 270° West 433 498 30,400 950 Climbing Cleveland Center
Mon 10:17:21 AM 43.0825 -77.6069 271° West 445 512 31,900 1,450 Climbing Cleveland Center
Mon 10:18:21 AM 43.0825 -77.7719 270° West 445 512 33,300 1,300 Climbing Cleveland Center
Mon 10:19:21 AM 43.0828 -77.9567 270° West 440 506 34,500 1,000 Climbing Cleveland Center
Mon 10:20:21 AM 43.0822 -78.1217 270° West 440 506 35,300 750 Climbing Cleveland Center
Mon 10:21:21 AM 43.0817 -78.2922 270° West 440 506 36,000 350 Climbing Cleveland Center
Mon 10:22:21 AM 43.0828 -78.4656 271° West 445 512 36,000  Level Cleveland Center
Mon 10:23:21 AM 43.0817 -78.6419 270° West 456 525 36,000  Level Cleveland Center
Mon 10:24:21 AM 43.0803 -78.8208 269° West 466 536 36,000  Level Cleveland Center
Mon 10:25:21 AM 43.0767 -79.0031 269° West 473 544 36,000  Level Cleveland Center
Mon 10:26:29 AM 43.0667 -79.1833 266° West 480 552 36,000  Level Toronto Center
Mon 10:27:29 AM 43.0667 -79.3833 270° West 480 552 36,000  Level Toronto Center
Mon 10:28:29 AM 43.0667 -79.5500 270° West 480 552 36,000  Level Toronto Center
Mon 10:29:29 AM 43.0500 -79.7500 264° West 480 552 36,000  Level Toronto Center
Mon 10:30:29 AM 43.0500 -79.9000 270° West 480 552 36,000  Level Toronto Center
Mon 10:31:29 AM 43.0500 -80.0833 270° West 480 552 36,000  Level Toronto Center
Mon 10:32:29 AM 43.0500 -80.2667 270° West 470 541 36,000  Level Toronto Center
Mon 10:33:29 AM 43.0500 -80.4500 270° West 470 541 36,000  Level Toronto Center
Mon 10:34:29 AM 43.0500 -80.6333 270° West 470 541 36,000  Level Toronto Center
Mon 10:35:29 AM 43.0333 -80.8167 263° West 470 541 36,000  Level Toronto Center
Mon 10:36:29 AM 43.0167 -81.0000 263° West 470 541 36,000  Level Toronto Center
Mon 10:37:29 AM 43.0333 -81.1833 277° West 470 541 36,000  Level Toronto Center
Mon 10:38:29 AM 43.0500 -81.3500 278° West 470 541 36,000  Level Toronto Center
Mon 10:39:29 AM 43.0833 -81.5333 284° West 460 529 36,000  Level Toronto Center
Mon 10:40:29 AM 43.1167 -81.6833 287° West 460 529 36,000  Level Toronto Center
Mon 10:41:29 AM 43.1333 -81.8500 278° West 460 529 36,000  Level Toronto Center
Mon 10:42:29 AM 43.1500 -82.0333 277° West 460 529 36,000  Level Toronto Center
Mon 10:43:29 AM 43.1833 -82.2167 284° West 470 541 36,000 250 Level Toronto Center
Mon 10:44:29 AM 43.2000 -82.4000 277° West 460 529 36,500 650 Climbing Toronto Center
Mon 10:45:29 AM 43.2333 -82.5667 285° West 460 529 37,300 643 Climbing Toronto Center
Mon 10:46:21 AM 43.2514 -82.7008 281° West 466 536 37,700 536 Climbing Cleveland Center
Mon 10:47:21 AM 43.2544 -82.8778 271° West 466 536 38,300 600 Climbing Cleveland Center
Mon 10:48:21 AM 43.2569 -83.0547 271° West 466 536 38,900 600 Climbing Cleveland Center
Mon 10:49:21 AM 43.2531 -83.2283 268° West 466 536 39,500 550 Climbing Cleveland Center
Mon 10:50:21 AM 43.2531 -83.4022 270° West 460 529 40,000 250 Climbing Cleveland Center
Mon 10:51:21 AM 43.2528 -83.5792 270° West 460 529 40,000  Level Cleveland Center
Mon 10:52:21 AM 43.2517 -83.7758 270° West 467 537 40,000  Level Cleveland Center
Mon 10:53:21 AM 43.2486 -83.9581 269° West 477 549 40,000  Level Cleveland Center
Mon 10:55:25 AM 43.2414 -84.3297 269° West 475 547 40,000  Level Chicago Center
Mon 10:56:27 AM 43.2389 -84.5094 269° West 474 545 40,000  Level Chicago Center
Mon 10:57:30 AM 43.2364 -84.6881 269° West 471 542 40,000  Level Chicago Center
Mon 10:58:32 AM 43.2333 -84.8667 269° West 470 541 40,000  Level Chicago Center
Mon 10:59:34 AM 43.2308 -85.0433 269° West 468 539 40,000  Level Chicago Center
Mon 11:00:36 AM 43.2311 -85.2200 270° West 465 535 40,000  Level Chicago Center
Mon 11:01:38 AM 43.2325 -85.4300 271° West 463 533 40,000  Level Chicago Center
Mon 11:02:40 AM 43.2328 -85.6078 270° West 467 537 40,000  Level Chicago Center
Mon 11:03:42 AM 43.2331 -85.7819 270° West 466 536 40,000  Level Chicago Center
Mon 11:04:44 AM 43.2325 -85.9561 270° West 466 536 40,000  Level Chicago Center
Mon 11:05:46 AM 43.2319 -86.1672 270° West 471 542 40,000  Level Chicago Center
Mon 11:06:48 AM 43.2294 -86.3425 269° West 466 536 40,000  Level Chicago Center
Mon 11:07:50 AM 43.2289 -86.5197 270° West 469 540 40,000  Level Chicago Center
Mon 11:08:52 AM 43.2275 -86.6950 269° West 465 535 40,000  Level Chicago Center
Mon 11:09:55 AM 43.2250 -86.8697 269° West 461 531 40,000  Level Chicago Center
Mon 11:10:57 AM 43.2225 -87.0789 269° West 460 529 40,000  Level Chicago Center
Mon 11:11:59 AM 43.2197 -87.2519 269° West 452 520 40,000  Level Chicago Center
Mon 11:13:01 AM 43.2167 -87.4403 269° West 458 527 40,000  Level Chicago Center
Mon 11:14:03 AM 43.2133 -87.6122 269° West 452 520 40,000  Level Chicago Center
Mon 11:15:05 AM 43.2092 -87.7875 268° West 457 526 40,000  Level Chicago Center
Mon 11:16:08 AM 43.2058 -87.9633 269° West 459 528 40,000  Level Chicago Center
Mon 11:17:09 AM 43.2017 -88.1411 268° West 463 533 40,000  Level Chicago Center
Mon 11:18:11 AM 43.1972 -88.3156 268° West 455 524 40,000  Level Chicago Center
Mon 11:19:13 AM 43.1914 -88.5214 268° West 458 527 40,000  Level Chicago Center
Mon 11:20:15 AM 43.1867 -88.6978 268° West 460 529 40,000  Level Chicago Center
Mon 11:21:18 AM 43.1833 -88.8706 269° West 452 520 40,000  Level Chicago Center
Mon 11:22:20 AM 43.1783 -89.0414 268° West 449 517 40,000  Level Chicago Center
Mon 11:23:22 AM 43.1731 -89.2119 268° West 448 516 40,000  Level Chicago Center
Mon 11:24:24 AM 43.1664 -89.3822 267° West 446 513 40,000  Level Chicago Center
Mon 11:25:26 AM 43.1608 -89.5811 268° West 448 516 40,000  Level Chicago Center
Mon 11:26:28 AM 43.1528 -89.7503 266° West 446 513 40,000  Level Chicago Center
Mon 11:27:30 AM 43.1469 -89.9203 267° West 446 513 40,000  Level Chicago Center
Mon 11:28:32 AM 43.1406 -90.0914 267° West 449 517 40,000  Level Chicago Center
Mon 11:29:34 AM 43.1331 -90.2628 267° West 449 517 40,000  Level Chicago Center
Mon 11:30:36 AM 43.1264 -90.4428 267° West 451 519 40,000  Level Chicago Center
Mon 11:31:38 AM 43.1183 -90.6119 266° West 450 518 40,000  Level Chicago Center
Mon 11:32:40 AM 43.1092 -90.7822 266° West 453 521 40,000  Level Chicago Center
Mon 11:33:43 AM 43.1008 -90.9867 267° West 454 522 40,000  Level Chicago Center
Mon 11:34:45 AM 43.0925 -91.1558 266° West 452 520 40,000  Level Chicago Center
Mon 11:35:47 AM 43.0844 -91.3253 266° West 454 522 40,000  Level Chicago Center
Mon 11:36:49 AM 43.0756 -91.4939 266° West 453 521 40,000  Level Chicago Center
Mon 11:37:51 AM 43.0653 -91.6939 266° West 450 518 40,000  Level Chicago Center
Mon 11:38:53 AM 43.0553 -91.8606 265° West 450 518 40,000  Level Chicago Center
Mon 11:39:55 AM 43.0458 -92.0278 266° West 451 519 40,000  Level Chicago Center
Mon 11:40:57 AM 43.0358 -92.1958 265° West 451 519 40,000  Level Chicago Center
Mon 11:41:59 AM 43.0236 -92.3978 265° West 452 520 40,000  Level Chicago Center
Mon 11:43:01 AM 43.0128 -92.5675 265° West 455 524 40,000  Level Chicago Center
Mon 11:44:03 AM 43.0031 -92.7361 266° West 452 520 40,000  Level Chicago Center
Mon 11:45:06 AM 42.9917 -92.9061 265° West 455 524 40,000  Level Chicago Center
Mon 11:46:08 AM 42.9806 -93.0756 265° West 455 524 40,000  Level Chicago Center
Mon 11:47:10 AM 42.9675 -93.2767 265° West 449 517 40,000  Level Chicago Center
Mon 11:48:12 AM 42.9550 -93.4458 264° West 451 519 40,000  Level Chicago Center
Mon 11:49:14 AM 42.9439 -93.6139 265° West 449 517 40,000  Level Chicago Center
Mon 11:50:16 AM 42.9308 -93.7819 264° West 451 519 40,000  Level Chicago Center
Mon 11:51:18 AM 42.9189 -93.9500 265° West 449 517 40,000  Level Chicago Center
Mon 11:52:20 AM 42.9039 -94.1508 264° West 449 517 40,000  Level Chicago Center
Mon 11:53:33 AM 42.8906 -94.3497 265° West 444 511 40,000  Level Minneapolis Center
Mon 11:54:35 AM 42.8778 -94.5172 264° West 447 514 40,000  Level Minneapolis Center
Mon 11:55:37 AM 42.8642 -94.6839 264° West 449 517 40,000  Level Minneapolis Center
Mon 11:56:39 AM 42.8508 -94.8519 264° West 448 516 40,000  Level Minneapolis Center
Mon 11:57:41 AM 42.8333 -95.0578 263° West 454 522 40,000  Level Minneapolis Center
Mon 11:58:43 AM 42.8192 -95.2281 264° West 455 524 40,000  Level Minneapolis Center
Mon 11:59:45 AM 42.8039 -95.4006 263° West 457 526 40,000  Level Minneapolis Center
Mon 12:00:47 PM 42.7897 -95.5719 264° West 456 525 40,000  Level Minneapolis Center
Mon 12:01:49 PM 42.7744 -95.7436 263° West 456 525 40,000  Level Minneapolis Center
Mon 12:02:51 PM 42.7586 -95.9169 263° West 459 528 40,000  Level Minneapolis Center
Mon 12:03:53 PM 42.7394 -96.1239 263° West 460 529 40,000  Level Minneapolis Center
Mon 12:04:55 PM 42.7228 -96.2958 263° West 458 527 40,000  Level Minneapolis Center
Mon 12:05:57 PM 42.7061 -96.4669 263° West 458 527 40,000  Level Minneapolis Center
Mon 12:07:00 PM 42.6900 -96.6411 263° West 461 531 40,000  Level Minneapolis Center
Mon 12:08:02 PM 42.6736 -96.8114 263° West 458 527 40,000  Level Minneapolis Center
Mon 12:09:04 PM 42.6561 -96.9811 262° West 457 526 40,000  Level Minneapolis Center
Mon 12:10:06 PM 42.6356 -97.1847 262° West 456 525 40,000  Level Minneapolis Center
Mon 12:11:08 PM 42.6175 -97.3572 262° West 457 526 40,000  Level Minneapolis Center
Mon 12:12:10 PM 42.6000 -97.5264 262° West 457 526 40,000  Level Minneapolis Center
Mon 12:13:12 PM 42.5817 -97.6969 262° West 457 526 40,000  Level Minneapolis Center
Mon 12:14:14 PM 42.5603 -97.8908 262° West 460 529 40,000  Level Minneapolis Center
Mon 12:15:16 PM 42.5414 -98.0608 261° West 458 527 40,000  Level Minneapolis Center
Mon 12:16:18 PM 42.5236 -98.2317 262° West 458 527 40,000  Level Minneapolis Center
Mon 12:17:20 PM 42.5039 -98.4011 261° West 458 527 40,000  Level Minneapolis Center
Mon 12:18:22 PM 42.4839 -98.5719 261° West 459 528 40,000  Level Minneapolis Center
Mon 12:19:25 PM 42.4344 -98.7647 251° West 456 525 40,000  Level Minneapolis Center
Mon 12:20:27 PM 42.3647 -98.9128 238° Southwest 466 536 40,000  Level Minneapolis Center
Mon 12:21:29 PM 42.2953 -99.0594 237° Southwest 464 534 40,000  Level Minneapolis Center
Mon 12:22:31 PM 42.2244 -99.2050 237° Southwest 465 535 40,000  Level Minneapolis Center
Mon 12:23:33 PM 42.1539 -99.3511 237° Southwest 466 536 40,000  Level Minneapolis Center
Mon 12:24:23 PM 42.1122 -99.4381 237° Southwest 463 533 40,000  Level Denver Center
Mon 12:25:26 PM 42.0144 -99.6394 237° Southwest 463 533 40,000  Level Denver Center
Mon 12:26:28 PM 41.9433 -99.7847 237° Southwest 457 526 40,000  Level Denver Center
Mon 12:27:30 PM 41.8767 -99.9208 237° Southwest 456 525 40,000  Level Denver Center
Mon 12:28:32 PM 41.7992 -100.0794 237° Southwest 456 525 40,000  Level Denver Center
Mon 12:29:34 PM 41.7311 -100.2161 236° Southwest 458 527 40,000  Level Denver Center
Mon 12:30:36 PM 41.6536 -100.3731 237° Southwest 456 525 40,000  Level Denver Center
Mon 12:31:39 PM 41.5861 -100.5081 236° Southwest 455 524 40,000  Level Denver Center
Mon 12:32:40 PM 41.5072 -100.6647 236° Southwest 458 527 40,000  Level Denver Center
Mon 12:33:42 PM 41.4408 -100.7983 236° Southwest 455 524 40,000  Level Denver Center
Mon 12:34:44 PM 41.3614 -100.9542 236° Southwest 458 527 40,000  Level Denver Center
Mon 12:35:47 PM 41.2936 -101.0869 236° Southwest 457 526 40,000  Level Denver Center
Mon 12:36:49 PM 41.2119 -101.2400 235° Southwest 457 526 40,000  Level Denver Center
Mon 12:37:51 PM 41.1308 -101.3592 228° Southwest 459 528 40,000  Level Denver Center
Mon 12:38:53 PM 41.0342 -101.4978 227° Southwest 461 531 40,000  Level Denver Center
Mon 12:39:55 PM 40.9511 -101.6175 227° Southwest 462 532 40,000  Level Denver Center
Mon 12:40:57 PM 40.8556 -101.7561 228° Southwest 460 529 40,000 -242 Level Denver Center
Mon 12:41:59 PM 40.7736 -101.8739 227° Southwest 457 526 39,500 -1,597 Descending Denver Center
Mon 12:43:01 PM 40.6794 -102.0075 227° Southwest 447 514 36,700 -2,758 Descending Denver Center
Mon 12:44:03 PM 40.5953 -102.1219 226° Southwest 453 521 33,800 -2,274 Descending Denver Center
Mon 12:45:05 PM 40.5056 -102.2686 231° Southwest 466 536 32,000 -871 Descending Denver Center
Mon 12:46:07 PM 40.4719 -102.4300 255° West 479 551 32,000  Level Denver Center
Mon 12:47:09 PM 40.4361 -102.6239 256° West 489 563 32,000  Level Denver Center
Mon 12:48:11 PM 40.4083 -102.7708 256° West 490 564 32,000  Level Denver Center
Mon 12:49:13 PM 40.3697 -102.9789 256° West 490 564 32,000  Level Denver Center
Mon 12:50:15 PM 40.3436 -103.1161 256° West 489 563 32,000 -823 Level Denver Center
Mon 12:51:17 PM 40.3086 -103.2964 256° West 428 493 30,300 -1,824 Descending Denver Center
Mon 12:52:20 PM 40.2803 -103.4417 256° West 417 480 28,200 -2,016 Descending Denver Center
Mon 12:53:22 PM 40.2528 -103.5861 256° West 413 475 26,100 -2,177 Descending Denver Center
Mon 12:54:24 PM 40.2211 -103.7425 255° West 392 451 23,700 -2,081 Descending Denver Center
Mon 12:55:26 PM 40.1936 -103.8644 254° West 350 403 21,800 -2,081 Descending Denver Center
Mon 12:56:28 PM 40.1447 -103.9739 240° Southwest 324 373 19,400 -2,177 Descending Denver Center
Mon 12:57:30 PM 40.0967 -104.0703 237° Southwest 318 366 17,300 -2,226 Descending Denver Center
Mon 12:58:32 PM 40.0464 -104.1756 238° Southwest 316 364 14,800 -2,081 Descending Denver Center
Mon 12:59:34 PM 40.0000 -104.2714 238° Southwest 314 361 13,000 -857 Descending Denver Center
Mon 01:00:38 PM 39.9497 -104.3767 238° Southwest 317 365 13,000 -143 Level Denver Center
Mon 01:01:40 PM 39.8983 -104.4819 238° Southwest 320 368 12,700 -726 Descending Denver Center
Mon 01:02:42 PM 39.8514 -104.5786 238° Southwest 317 365 11,500 -823 Descending Denver Center
Mon 01:03:44 PM 39.8017 -104.6625 232° Southwest 284 327 11,000 -242 Descending Denver Center
Mon 01:04:46 PM 39.7508 -104.7389 229° Southwest 259 298 11,000 -145 Level Denver Center
Mon 01:05:48 PM 39.6978 -104.7853 214° Southwest 247 284 10,700 -726 Descending Denver Center
Mon 01:06:50 PM 39.6325 -104.7872 181° South 239 275 9,500 -1,113 Descending Denver Center
Mon 01:07:52 PM 39.5619 -104.7922 183° South 230 265 8,400 -726 Descending Denver Center
Mon 01:08:54 PM 39.4992 -104.7933 181° South 226 260 8,000 -194 Descending Denver Center
Mon 01:09:56 PM 39.4586 -104.8078 195° South 197 227 8,000 -435 Level Denver Center
Mon 01:10:58 PM 39.4967 -104.8508 319° Northwest 157 181 7,100 -823 Descending Denver Center
Mon 01:12:00 PM 39.5400 -104.8497 North 145 167 6,300 -629 Descending Denver Center
Mon 01:13:02 PM 39.5731 -104.8500 360° North 126 145 5,800 -484 Descending Denver Center

Login

Don't have an account? Register now (free) for customized features, flight alerts, and more!